sensor_id;sensor_type;location;lat;lon;timestamp;P1;durP1;ratioP1;P2;durP2;ratioP2
72720;SDS011;60835;50.974;10.322;2023-08-21T00:01:28;18.20;;;11.15;;
72720;SDS011;60835;50.974;10.322;2023-08-21T00:03:55;23.88;;;11.63;;
72720;SDS011;60835;50.974;10.322;2023-08-21T00:06:22;23.25;;;11.52;;
72720;SDS011;60835;50.974;10.322;2023-08-21T00:08:49;19.27;;;11.40;;
72720;SDS011;60835;50.974;10.322;2023-08-21T00:11:15;26.65;;;11.35;;
72720;SDS011;60835;50.974;10.322;2023-08-21T00:13:43;23.92;;;11.80;;
72720;SDS011;60835;50.974;10.322;2023-08-21T00:16:11;17.02;;;11.32;;
72720;SDS011;60835;50.974;10.322;2023-08-21T00:18:38;23.70;;;12.00;;
72720;SDS011;60835;50.974;10.322;2023-08-21T00:21:04;16.58;;;11.75;;
72720;SDS011;60835;50.974;10.322;2023-08-21T00:23:31;16.25;;;11.23;;
72720;SDS011;60835;50.974;10.322;2023-08-21T00:25:58;20.25;;;12.63;;
72720;SDS011;60835;50.974;10.322;2023-08-21T00:28:24;20.20;;;11.73;;
72720;SDS011;60835;50.974;10.322;2023-08-21T00:30:51;19.42;;;12.07;;
72720;SDS011;60835;50.974;10.322;2023-08-21T00:33:28;20.95;;;11.55;;
72720;SDS011;60835;50.974;10.322;2023-08-21T00:35:56;23.20;;;11.38;;
72720;SDS011;60835;50.974;10.322;2023-08-21T00:38:23;20.10;;;11.82;;
72720;SDS011;60835;50.974;10.322;2023-08-21T00:40:50;17.95;;;11.60;;
72720;SDS011;60835;50.974;10.322;2023-08-21T00:43:17;17.70;;;11.70;;
72720;SDS011;60835;50.974;10.322;2023-08-21T00:45:44;18.38;;;11.35;;
72720;SDS011;60835;50.974;10.322;2023-08-21T00:48:13;26.83;;;12.07;;
72720;SDS011;60835;50.974;10.322;2023-08-21T00:50:40;21.55;;;11.80;;
72720;SDS011;60835;50.974;10.322;2023-08-21T00:53:08;21.42;;;11.27;;
72720;SDS011;60835;50.974;10.322;2023-08-21T00:55:35;15.98;;;11.32;;
72720;SDS011;60835;50.974;10.322;2023-08-21T00:58:02;18.50;;;11.30;;
72720;SDS011;60835;50.974;10.322;2023-08-21T01:00:30;18.10;;;11.35;;
72720;SDS011;60835;50.974;10.322;2023-08-21T01:02:57;20.30;;;11.57;;
72720;SDS011;60835;50.974;10.322;2023-08-21T01:05:24;16.85;;;10.13;;
72720;SDS011;60835;50.974;10.322;2023-08-21T01:10:58;26.50;;;14.02;;
72720;SDS011;60835;50.974;10.322;2023-08-21T01:16:13;18.85;;;11.38;;
72720;SDS011;60835;50.974;10.322;2023-08-21T01:18:42;25.05;;;11.85;;
72720;SDS011;60835;50.974;10.322;2023-08-21T01:21:11;18.60;;;12.00;;
72720;SDS011;60835;50.974;10.322;2023-08-21T01:23:40;20.42;;;11.20;;
72720;SDS011;60835;50.974;10.322;2023-08-21T01:26:08;18.70;;;12.50;;
72720;SDS011;60835;50.974;10.322;2023-08-21T01:28:35;17.48;;;11.88;;
72720;SDS011;60835;50.974;10.322;2023-08-21T01:31:13;20.40;;;11.27;;
72720;SDS011;60835;50.974;10.322;2023-08-21T01:33:45;15.48;;;10.80;;
72720;SDS011;60835;50.974;10.322;2023-08-21T01:36:14;21.40;;;11.35;;
72720;SDS011;60835;50.974;10.322;2023-08-21T01:38:41;23.58;;;12.68;;
72720;SDS011;60835;50.974;10.322;2023-08-21T01:41:08;19.08;;;12.25;;
72720;SDS011;60835;50.974;10.322;2023-08-21T01:43:34;21.92;;;11.80;;
72720;SDS011;60835;50.974;10.322;2023-08-21T01:46:01;22.23;;;11.50;;
72720;SDS011;60835;50.974;10.322;2023-08-21T01:48:29;27.77;;;11.35;;
72720;SDS011;60835;50.974;10.322;2023-08-21T01:50:56;18.70;;;10.85;;
72720;SDS011;60835;50.974;10.322;2023-08-21T01:53:22;18.23;;;11.00;;
72720;SDS011;60835;50.974;10.322;2023-08-21T01:55:49;17.85;;;10.93;;
72720;SDS011;60835;50.974;10.322;2023-08-21T01:58:16;17.98;;;11.35;;
72720;SDS011;60835;50.974;10.322;2023-08-21T02:00:45;16.73;;;11.18;;
72720;SDS011;60835;50.974;10.322;2023-08-21T02:03:12;22.15;;;10.63;;
72720;SDS011;60835;50.974;10.322;2023-08-21T02:05:40;18.00;;;11.00;;
72720;SDS011;60835;50.974;10.322;2023-08-21T02:08:08;19.08;;;10.75;;
72720;SDS011;60835;50.974;10.322;2023-08-21T02:10:46;20.98;;;11.13;;
72720;SDS011;60835;50.974;10.322;2023-08-21T02:13:17;25.88;;;11.98;;
72720;SDS011;60835;50.974;10.322;2023-08-21T02:15:45;17.00;;;10.57;;
72720;SDS011;60835;50.974;10.322;2023-08-21T02:18:11;18.15;;;11.52;;
72720;SDS011;60835;50.974;10.322;2023-08-21T02:20:38;24.15;;;11.45;;
72720;SDS011;60835;50.974;10.322;2023-08-21T02:23:05;16.05;;;10.60;;
72720;SDS011;60835;50.974;10.322;2023-08-21T02:25:31;20.10;;;10.82;;
72720;SDS011;60835;50.974;10.322;2023-08-21T02:27:58;14.93;;;10.45;;
72720;SDS011;60835;50.974;10.322;2023-08-21T02:30:25;15.68;;;10.68;;
72720;SDS011;60835;50.974;10.322;2023-08-21T02:32:53;14.10;;;9.98;;
72720;SDS011;60835;50.974;10.322;2023-08-21T02:35:20;17.40;;;10.05;;
72720;SDS011;60835;50.974;10.322;2023-08-21T02:37:47;17.20;;;9.95;;
72720;SDS011;60835;50.974;10.322;2023-08-21T02:40:15;19.98;;;10.10;;
72720;SDS011;60835;50.974;10.322;2023-08-21T02:42:41;15.10;;;10.88;;
72720;SDS011;60835;50.974;10.322;2023-08-21T02:45:08;20.05;;;10.60;;
72720;SDS011;60835;50.974;10.322;2023-08-21T02:47:36;19.35;;;10.35;;
72720;SDS011;60835;50.974;10.322;2023-08-21T02:50:04;17.00;;;10.25;;
72720;SDS011;60835;50.974;10.322;2023-08-21T02:52:32;17.52;;;10.23;;
72720;SDS011;60835;50.974;10.322;2023-08-21T02:54:59;20.10;;;9.82;;
72720;SDS011;60835;50.974;10.322;2023-08-21T02:57:26;18.38;;;11.13;;
72720;SDS011;60835;50.974;10.322;2023-08-21T02:59:54;19.55;;;10.10;;
72720;SDS011;60835;50.974;10.322;2023-08-21T03:02:21;18.60;;;11.30;;
72720;SDS011;60835;50.974;10.322;2023-08-21T03:04:49;18.70;;;10.45;;
72720;SDS011;60835;50.974;10.322;2023-08-21T03:07:15;24.83;;;10.00;;
72720;SDS011;60835;50.974;10.322;2023-08-21T03:09:44;22.02;;;12.85;;
72720;SDS011;60835;50.974;10.322;2023-08-21T03:12:13;20.50;;;12.27;;
72720;SDS011;60835;50.974;10.322;2023-08-21T03:14:39;16.30;;;10.13;;
72720;SDS011;60835;50.974;10.322;2023-08-21T03:17:06;21.45;;;11.50;;
72720;SDS011;60835;50.974;10.322;2023-08-21T03:19:33;15.68;;;9.45;;
72720;SDS011;60835;50.974;10.322;2023-08-21T03:22:00;13.88;;;9.82;;
72720;SDS011;60835;50.974;10.322;2023-08-21T03:24:27;17.90;;;9.50;;
72720;SDS011;60835;50.974;10.322;2023-08-21T03:26:53;19.90;;;9.63;;
72720;SDS011;60835;50.974;10.322;2023-08-21T03:29:20;25.15;;;11.93;;
72720;SDS011;60835;50.974;10.322;2023-08-21T03:31:49;16.50;;;9.73;;
72720;SDS011;60835;50.974;10.322;2023-08-21T03:34:19;19.52;;;9.82;;
72720;SDS011;60835;50.974;10.322;2023-08-21T03:36:46;11.23;;;8.50;;
72720;SDS011;60835;50.974;10.322;2023-08-21T03:39:13;14.52;;;9.15;;
72720;SDS011;60835;50.974;10.322;2023-08-21T03:41:39;15.98;;;9.75;;
72720;SDS011;60835;50.974;10.322;2023-08-21T03:44:06;16.95;;;8.63;;
72720;SDS011;60835;50.974;10.322;2023-08-21T03:46:34;15.98;;;9.02;;
72720;SDS011;60835;50.974;10.322;2023-08-21T03:49:01;11.45;;;9.10;;
72720;SDS011;60835;50.974;10.322;2023-08-21T03:51:28;15.38;;;9.50;;
72720;SDS011;60835;50.974;10.322;2023-08-21T03:53:55;16.35;;;9.25;;
72720;SDS011;60835;50.974;10.322;2023-08-21T03:56:21;15.80;;;9.57;;
72720;SDS011;60835;50.974;10.322;2023-08-21T03:58:49;13.68;;;8.70;;
72720;SDS011;60835;50.974;10.322;2023-08-21T04:01:16;20.20;;;9.48;;
72720;SDS011;60835;50.974;10.322;2023-08-21T04:03:43;17.02;;;8.93;;
72720;SDS011;60835;50.974;10.322;2023-08-21T04:06:10;15.20;;;9.27;;
72720;SDS011;60835;50.974;10.322;2023-08-21T04:08:36;19.70;;;9.25;;
72720;SDS011;60835;50.974;10.322;2023-08-21T04:11:04;18.83;;;9.18;;
72720;SDS011;60835;50.974;10.322;2023-08-21T04:13:32;18.25;;;9.10;;
72720;SDS011;60835;50.974;10.322;2023-08-21T04:15:58;19.40;;;8.88;;
72720;SDS011;60835;50.974;10.322;2023-08-21T04:18:25;20.77;;;9.73;;
72720;SDS011;60835;50.974;10.322;2023-08-21T04:21:06;17.38;;;9.25;;
72720;SDS011;60835;50.974;10.322;2023-08-21T04:23:32;17.67;;;9.30;;
72720;SDS011;60835;50.974;10.322;2023-08-21T04:26:00;19.63;;;9.75;;
72720;SDS011;60835;50.974;10.322;2023-08-21T04:28:32;15.85;;;9.40;;
72720;SDS011;60835;50.974;10.322;2023-08-21T04:30:59;12.55;;;9.10;;
72720;SDS011;60835;50.974;10.322;2023-08-21T04:33:27;13.15;;;9.07;;
72720;SDS011;60835;50.974;10.322;2023-08-21T04:35:55;13.90;;;8.82;;
72720;SDS011;60835;50.974;10.322;2023-08-21T04:38:22;15.27;;;9.77;;
72720;SDS011;60835;50.974;10.322;2023-08-21T04:40:49;23.15;;;10.05;;
72720;SDS011;60835;50.974;10.322;2023-08-21T04:43:16;20.02;;;9.98;;
72720;SDS011;60835;50.974;10.322;2023-08-21T04:45:47;16.42;;;9.82;;
72720;SDS011;60835;50.974;10.322;2023-08-21T04:48:15;14.48;;;10.15;;
72720;SDS011;60835;50.974;10.322;2023-08-21T04:50:42;20.60;;;9.45;;
72720;SDS011;60835;50.974;10.322;2023-08-21T04:53:09;18.40;;;9.75;;
72720;SDS011;60835;50.974;10.322;2023-08-21T04:55:35;21.85;;;9.32;;
72720;SDS011;60835;50.974;10.322;2023-08-21T04:58:03;12.35;;;8.35;;
72720;SDS011;60835;50.974;10.322;2023-08-21T05:00:30;14.52;;;8.30;;
72720;SDS011;60835;50.974;10.322;2023-08-21T05:02:57;13.02;;;8.80;;
72720;SDS011;60835;50.974;10.322;2023-08-21T05:05:23;13.60;;;8.25;;
72720;SDS011;60835;50.974;10.322;2023-08-21T05:07:51;18.30;;;8.73;;
72720;SDS011;60835;50.974;10.322;2023-08-21T05:10:19;13.82;;;8.85;;
72720;SDS011;60835;50.974;10.322;2023-08-21T05:12:46;20.33;;;10.25;;
72720;SDS011;60835;50.974;10.322;2023-08-21T05:15:13;14.45;;;8.68;;
72720;SDS011;60835;50.974;10.322;2023-08-21T05:17:40;18.77;;;8.68;;
72720;SDS011;60835;50.974;10.322;2023-08-21T05:20:08;16.13;;;9.63;;
72720;SDS011;60835;50.974;10.322;2023-08-21T05:22:34;15.07;;;9.13;;
72720;SDS011;60835;50.974;10.322;2023-08-21T05:25:02;15.07;;;8.35;;
72720;SDS011;60835;50.974;10.322;2023-08-21T05:27:29;19.40;;;8.68;;
72720;SDS011;60835;50.974;10.322;2023-08-21T05:29:56;16.05;;;8.68;;
72720;SDS011;60835;50.974;10.322;2023-08-21T05:32:22;13.65;;;8.77;;
72720;SDS011;60835;50.974;10.322;2023-08-21T05:34:49;15.27;;;8.93;;
72720;SDS011;60835;50.974;10.322;2023-08-21T05:37:22;14.00;;;8.93;;
72720;SDS011;60835;50.974;10.322;2023-08-21T05:39:49;12.35;;;8.55;;
72720;SDS011;60835;50.974;10.322;2023-08-21T05:42:15;20.08;;;9.38;;
72720;SDS011;60835;50.974;10.322;2023-08-21T05:44:42;17.00;;;8.30;;
72720;SDS011;60835;50.974;10.322;2023-08-21T05:47:09;13.10;;;8.57;;
72720;SDS011;60835;50.974;10.322;2023-08-21T05:49:35;12.82;;;8.40;;
72720;SDS011;60835;50.974;10.322;2023-08-21T05:52:02;16.67;;;9.18;;
72720;SDS011;60835;50.974;10.322;2023-08-21T05:54:29;11.43;;;8.90;;
72720;SDS011;60835;50.974;10.322;2023-08-21T05:56:57;11.73;;;8.35;;
72720;SDS011;60835;50.974;10.322;2023-08-21T05:59:29;14.45;;;8.73;;
72720;SDS011;60835;50.974;10.322;2023-08-21T06:01:56;14.90;;;9.50;;
72720;SDS011;60835;50.974;10.322;2023-08-21T06:04:26;15.65;;;8.50;;
72720;SDS011;60835;50.974;10.322;2023-08-21T06:06:54;13.25;;;7.85;;
72720;SDS011;60835;50.974;10.322;2023-08-21T06:09:20;14.50;;;8.68;;
72720;SDS011;60835;50.974;10.322;2023-08-21T06:11:47;14.18;;;8.00;;
72720;SDS011;60835;50.974;10.322;2023-08-21T06:14:14;11.20;;;7.85;;
72720;SDS011;60835;50.974;10.322;2023-08-21T06:16:40;14.93;;;8.30;;
72720;SDS011;60835;50.974;10.322;2023-08-21T06:19:07;15.80;;;7.57;;
72720;SDS011;60835;50.974;10.322;2023-08-21T06:21:34;12.73;;;7.68;;
72720;SDS011;60835;50.974;10.322;2023-08-21T06:24:01;16.20;;;8.02;;
72720;SDS011;60835;50.974;10.322;2023-08-21T06:26:28;15.68;;;7.60;;
72720;SDS011;60835;50.974;10.322;2023-08-21T06:28:55;10.90;;;7.75;;
72720;SDS011;60835;50.974;10.322;2023-08-21T06:31:21;13.70;;;8.05;;
72720;SDS011;60835;50.974;10.322;2023-08-21T06:33:48;15.20;;;7.30;;
72720;SDS011;60835;50.974;10.322;2023-08-21T06:36:15;17.58;;;7.93;;
72720;SDS011;60835;50.974;10.322;2023-08-21T06:38:41;11.90;;;8.25;;
72720;SDS011;60835;50.974;10.322;2023-08-21T06:41:09;12.23;;;7.20;;
72720;SDS011;60835;50.974;10.322;2023-08-21T06:43:38;13.40;;;7.40;;
72720;SDS011;60835;50.974;10.322;2023-08-21T06:46:10;15.00;;;7.45;;
72720;SDS011;60835;50.974;10.322;2023-08-21T06:48:37;13.00;;;8.05;;
72720;SDS011;60835;50.974;10.322;2023-08-21T06:51:05;16.33;;;8.15;;
72720;SDS011;60835;50.974;10.322;2023-08-21T06:53:32;15.50;;;8.40;;
72720;SDS011;60835;50.974;10.322;2023-08-21T06:55:59;20.02;;;9.40;;
72720;SDS011;60835;50.974;10.322;2023-08-21T06:58:26;16.55;;;7.90;;
72720;SDS011;60835;50.974;10.322;2023-08-21T07:00:53;15.68;;;8.40;;
72720;SDS011;60835;50.974;10.322;2023-08-21T07:03:20;16.25;;;8.23;;
72720;SDS011;60835;50.974;10.322;2023-08-21T07:05:53;17.08;;;7.85;;
72720;SDS011;60835;50.974;10.322;2023-08-21T07:08:21;16.00;;;7.70;;
72720;SDS011;60835;50.974;10.322;2023-08-21T07:10:49;15.77;;;7.60;;
72720;SDS011;60835;50.974;10.322;2023-08-21T07:13:16;17.33;;;7.05;;
72720;SDS011;60835;50.974;10.322;2023-08-21T07:15:42;12.20;;;7.18;;
72720;SDS011;60835;50.974;10.322;2023-08-21T07:18:09;10.82;;;6.88;;
72720;SDS011;60835;50.974;10.322;2023-08-21T07:20:36;11.20;;;6.75;;
72720;SDS011;60835;50.974;10.322;2023-08-21T07:23:03;11.88;;;6.57;;
72720;SDS011;60835;50.974;10.322;2023-08-21T07:25:29;16.17;;;7.65;;
72720;SDS011;60835;50.974;10.322;2023-08-21T07:27:57;11.90;;;7.07;;
72720;SDS011;60835;50.974;10.322;2023-08-21T07:30:25;12.13;;;8.65;;
72720;SDS011;60835;50.974;10.322;2023-08-21T07:32:52;14.00;;;7.47;;
72720;SDS011;60835;50.974;10.322;2023-08-21T07:35:19;16.35;;;8.57;;
72720;SDS011;60835;50.974;10.322;2023-08-21T07:37:47;18.08;;;10.57;;
72720;SDS011;60835;50.974;10.322;2023-08-21T07:40:13;15.98;;;9.50;;
72720;SDS011;60835;50.974;10.322;2023-08-21T07:42:40;16.30;;;9.32;;
72720;SDS011;60835;50.974;10.322;2023-08-21T07:45:08;13.65;;;9.18;;
72720;SDS011;60835;50.974;10.322;2023-08-21T07:47:35;15.60;;;9.10;;
72720;SDS011;60835;50.974;10.322;2023-08-21T07:50:03;12.52;;;8.00;;
72720;SDS011;60835;50.974;10.322;2023-08-21T07:52:31;12.00;;;8.35;;
72720;SDS011;60835;50.974;10.322;2023-08-21T07:54:57;17.23;;;9.02;;
72720;SDS011;60835;50.974;10.322;2023-08-21T07:57:25;13.10;;;9.43;;
72720;SDS011;60835;50.974;10.322;2023-08-21T07:59:52;13.40;;;8.40;;
72720;SDS011;60835;50.974;10.322;2023-08-21T08:02:21;16.83;;;9.85;;
72720;SDS011;60835;50.974;10.322;2023-08-21T08:04:48;15.88;;;9.45;;
72720;SDS011;60835;50.974;10.322;2023-08-21T08:07:14;13.63;;;8.48;;
72720;SDS011;60835;50.974;10.322;2023-08-21T08:09:41;9.48;;;7.28;;
72720;SDS011;60835;50.974;10.322;2023-08-21T08:12:08;10.63;;;7.20;;
72720;SDS011;60835;50.974;10.322;2023-08-21T08:14:35;12.00;;;7.65;;
72720;SDS011;60835;50.974;10.322;2023-08-21T08:17:01;11.43;;;7.13;;
72720;SDS011;60835;50.974;10.322;2023-08-21T08:19:28;13.93;;;7.18;;
72720;SDS011;60835;50.974;10.322;2023-08-21T08:21:55;10.48;;;7.35;;
72720;SDS011;60835;50.974;10.322;2023-08-21T08:24:22;15.70;;;7.40;;
72720;SDS011;60835;50.974;10.322;2023-08-21T08:26:49;15.43;;;8.93;;
72720;SDS011;60835;50.974;10.322;2023-08-21T08:29:16;11.45;;;8.60;;
72720;SDS011;60835;50.974;10.322;2023-08-21T08:31:42;15.05;;;8.07;;
72720;SDS011;60835;50.974;10.322;2023-08-21T08:34:09;9.93;;;8.02;;
72720;SDS011;60835;50.974;10.322;2023-08-21T08:36:35;13.50;;;8.60;;
72720;SDS011;60835;50.974;10.322;2023-08-21T08:39:02;12.30;;;8.18;;
72720;SDS011;60835;50.974;10.322;2023-08-21T08:41:30;13.23;;;8.75;;
72720;SDS011;60835;50.974;10.322;2023-08-21T08:44:04;12.00;;;8.05;;
72720;SDS011;60835;50.974;10.322;2023-08-21T08:46:31;16.88;;;8.75;;
72720;SDS011;60835;50.974;10.322;2023-08-21T08:48:58;16.95;;;9.27;;
72720;SDS011;60835;50.974;10.322;2023-08-21T08:51:27;12.07;;;9.70;;
72720;SDS011;60835;50.974;10.322;2023-08-21T08:53:57;15.23;;;9.63;;
72720;SDS011;60835;50.974;10.322;2023-08-21T08:56:25;13.55;;;10.15;;
72720;SDS011;60835;50.974;10.322;2023-08-21T08:58:52;15.60;;;9.73;;
72720;SDS011;60835;50.974;10.322;2023-08-21T09:01:18;18.00;;;9.50;;
72720;SDS011;60835;50.974;10.322;2023-08-21T09:03:45;15.70;;;10.63;;
72720;SDS011;60835;50.974;10.322;2023-08-21T09:06:12;15.55;;;9.43;;
72720;SDS011;60835;50.974;10.322;2023-08-21T09:08:40;17.42;;;9.13;;
72720;SDS011;60835;50.974;10.322;2023-08-21T09:11:19;18.98;;;9.00;;
72720;SDS011;60835;50.974;10.322;2023-08-21T09:13:48;17.42;;;9.88;;
72720;SDS011;60835;50.974;10.322;2023-08-21T09:16:20;13.13;;;9.15;;
72720;SDS011;60835;50.974;10.322;2023-08-21T09:21:25;12.02;;;9.20;;
72720;SDS011;60835;50.974;10.322;2023-08-21T09:23:58;14.00;;;9.10;;
72720;SDS011;60835;50.974;10.322;2023-08-21T09:26:31;11.68;;;8.18;;
72720;SDS011;60835;50.974;10.322;2023-08-21T09:28:59;12.48;;;8.75;;
72720;SDS011;60835;50.974;10.322;2023-08-21T09:31:31;10.77;;;8.27;;
72720;SDS011;60835;50.974;10.322;2023-08-21T09:33:59;12.80;;;9.13;;
72720;SDS011;60835;50.974;10.322;2023-08-21T09:36:27;12.57;;;9.15;;
72720;SDS011;60835;50.974;10.322;2023-08-21T09:38:54;14.43;;;8.55;;
72720;SDS011;60835;50.974;10.322;2023-08-21T09:41:22;12.38;;;8.35;;
72720;SDS011;60835;50.974;10.322;2023-08-21T09:43:49;11.93;;;8.27;;
72720;SDS011;60835;50.974;10.322;2023-08-21T09:46:16;10.52;;;8.60;;
72720;SDS011;60835;50.974;10.322;2023-08-21T09:48:49;11.43;;;8.35;;
72720;SDS011;60835;50.974;10.322;2023-08-21T09:51:18;11.57;;;7.95;;
72720;SDS011;60835;50.974;10.322;2023-08-21T09:53:45;14.77;;;7.88;;
72720;SDS011;60835;50.974;10.322;2023-08-21T09:56:12;10.57;;;7.78;;
72720;SDS011;60835;50.974;10.322;2023-08-21T09:58:39;9.80;;;8.60;;
72720;SDS011;60835;50.974;10.322;2023-08-21T10:01:07;17.10;;;9.18;;
72720;SDS011;60835;50.974;10.322;2023-08-21T10:03:41;12.15;;;7.90;;
72720;SDS011;60835;50.974;10.322;2023-08-21T10:06:08;11.55;;;7.97;;
72720;SDS011;60835;50.974;10.322;2023-08-21T10:08:38;12.35;;;7.13;;
72720;SDS011;60835;50.974;10.322;2023-08-21T10:11:08;10.35;;;7.30;;
72720;SDS011;60835;50.974;10.322;2023-08-21T10:13:37;10.88;;;7.10;;
72720;SDS011;60835;50.974;10.322;2023-08-21T10:16:05;13.77;;;7.07;;
72720;SDS011;60835;50.974;10.322;2023-08-21T10:18:35;14.57;;;7.30;;
72720;SDS011;60835;50.974;10.322;2023-08-21T10:21:15;11.77;;;7.75;;
72720;SDS011;60835;50.974;10.322;2023-08-21T10:23:47;7.38;;;6.35;;
72720;SDS011;60835;50.974;10.322;2023-08-21T10:26:16;9.63;;;6.80;;
72720;SDS011;60835;50.974;10.322;2023-08-21T10:28:56;9.77;;;6.03;;
72720;SDS011;60835;50.974;10.322;2023-08-21T10:31:32;9.65;;;6.47;;
72720;SDS011;60835;50.974;10.322;2023-08-21T10:34:07;12.20;;;9.55;;
72720;SDS011;60835;50.974;10.322;2023-08-21T10:41:59;7.22;;;6.10;;
72720;SDS011;60835;50.974;10.322;2023-08-21T10:47:22;12.82;;;6.20;;
72720;SDS011;60835;50.974;10.322;2023-08-21T10:49:51;8.25;;;7.40;;
72720;SDS011;60835;50.974;10.322;2023-08-21T10:52:26;5.32;;;4.82;;
72720;SDS011;60835;50.974;10.322;2023-08-21T10:54:54;7.68;;;5.93;;
72720;SDS011;60835;50.974;10.322;2023-08-21T10:57:23;8.35;;;5.10;;
72720;SDS011;60835;50.974;10.322;2023-08-21T10:59:51;6.65;;;5.13;;
72720;SDS011;60835;50.974;10.322;2023-08-21T11:02:18;10.57;;;7.93;;
72720;SDS011;60835;50.974;10.322;2023-08-21T11:04:45;7.45;;;5.82;;
72720;SDS011;60835;50.974;10.322;2023-08-21T11:07:12;8.60;;;5.15;;
72720;SDS011;60835;50.974;10.322;2023-08-21T11:09:39;9.95;;;6.03;;
72720;SDS011;60835;50.974;10.322;2023-08-21T11:12:09;10.05;;;6.97;;
72720;SDS011;60835;50.974;10.322;2023-08-21T11:14:38;6.25;;;5.03;;
72720;SDS011;60835;50.974;10.322;2023-08-21T11:17:06;8.35;;;4.60;;
72720;SDS011;60835;50.974;10.322;2023-08-21T11:19:35;5.82;;;4.65;;
72720;SDS011;60835;50.974;10.322;2023-08-21T11:22:02;9.18;;;5.22;;
72720;SDS011;60835;50.974;10.322;2023-08-21T11:24:40;11.52;;;5.20;;
72720;SDS011;60835;50.974;10.322;2023-08-21T11:27:15;7.20;;;5.40;;
72720;SDS011;60835;50.974;10.322;2023-08-21T11:29:49;6.38;;;4.68;;
72720;SDS011;60835;50.974;10.322;2023-08-21T11:32:18;7.38;;;4.60;;
72720;SDS011;60835;50.974;10.322;2023-08-21T11:34:49;8.85;;;5.68;;
72720;SDS011;60835;50.974;10.322;2023-08-21T11:37:18;8.15;;;5.43;;
72720;SDS011;60835;50.974;10.322;2023-08-21T11:39:51;13.68;;;5.60;;
72720;SDS011;60835;50.974;10.322;2023-08-21T11:42:20;7.15;;;4.72;;
72720;SDS011;60835;50.974;10.322;2023-08-21T11:44:52;7.63;;;4.28;;
72720;SDS011;60835;50.974;10.322;2023-08-21T11:47:20;7.47;;;4.50;;
72720;SDS011;60835;50.974;10.322;2023-08-21T11:49:47;8.70;;;4.88;;
72720;SDS011;60835;50.974;10.322;2023-08-21T11:52:22;8.10;;;4.50;;
72720;SDS011;60835;50.974;10.322;2023-08-21T11:54:53;6.57;;;4.53;;
72720;SDS011;60835;50.974;10.322;2023-08-21T11:57:20;10.55;;;5.55;;
72720;SDS011;60835;50.974;10.322;2023-08-21T11:59:51;6.40;;;4.35;;
72720;SDS011;60835;50.974;10.322;2023-08-21T12:02:22;6.85;;;4.45;;
72720;SDS011;60835;50.974;10.322;2023-08-21T12:05:05;5.63;;;4.13;;
72720;SDS011;60835;50.974;10.322;2023-08-21T12:07:33;8.52;;;4.32;;
72720;SDS011;60835;50.974;10.322;2023-08-21T12:10:00;6.30;;;3.92;;
72720;SDS011;60835;50.974;10.322;2023-08-21T12:12:27;9.48;;;6.90;;
72720;SDS011;60835;50.974;10.322;2023-08-21T12:14:53;4.78;;;4.13;;
72720;SDS011;60835;50.974;10.322;2023-08-21T12:17:20;8.02;;;4.85;;
72720;SDS011;60835;50.974;10.322;2023-08-21T12:19:46;5.35;;;4.28;;
72720;SDS011;60835;50.974;10.322;2023-08-21T12:22:14;4.80;;;3.58;;
72720;SDS011;60835;50.974;10.322;2023-08-21T12:24:40;5.43;;;3.50;;
72720;SDS011;60835;50.974;10.322;2023-08-21T12:27:07;5.20;;;3.10;;
72720;SDS011;60835;50.974;10.322;2023-08-21T12:29:34;14.05;;;10.95;;
72720;SDS011;60835;50.974;10.322;2023-08-21T12:32:01;9.40;;;4.68;;
72720;SDS011;60835;50.974;10.322;2023-08-21T12:34:29;4.30;;;3.90;;
72720;SDS011;60835;50.974;10.322;2023-08-21T12:36:55;6.05;;;3.70;;
72720;SDS011;60835;50.974;10.322;2023-08-21T12:39:22;5.95;;;4.18;;
72720;SDS011;60835;50.974;10.322;2023-08-21T12:41:49;5.40;;;3.60;;
72720;SDS011;60835;50.974;10.322;2023-08-21T12:44:16;6.28;;;4.03;;
72720;SDS011;60835;50.974;10.322;2023-08-21T12:46:42;6.05;;;4.00;;
72720;SDS011;60835;50.974;10.322;2023-08-21T12:49:09;4.85;;;3.75;;
72720;SDS011;60835;50.974;10.322;2023-08-21T12:51:35;6.82;;;4.30;;
72720;SDS011;60835;50.974;10.322;2023-08-21T12:54:02;4.07;;;3.65;;
72720;SDS011;60835;50.974;10.322;2023-08-21T12:56:30;7.85;;;3.63;;
72720;SDS011;60835;50.974;10.322;2023-08-21T12:58:56;5.60;;;3.78;;
72720;SDS011;60835;50.974;10.322;2023-08-21T13:01:23;6.50;;;3.83;;
72720;SDS011;60835;50.974;10.322;2023-08-21T13:03:50;5.10;;;3.83;;
72720;SDS011;60835;50.974;10.322;2023-08-21T13:06:17;6.20;;;3.92;;
72720;SDS011;60835;50.974;10.322;2023-08-21T13:08:45;8.50;;;4.43;;
72720;SDS011;60835;50.974;10.322;2023-08-21T13:11:11;7.35;;;4.55;;
72720;SDS011;60835;50.974;10.322;2023-08-21T13:13:38;4.78;;;3.70;;
72720;SDS011;60835;50.974;10.322;2023-08-21T13:16:04;8.02;;;3.70;;
72720;SDS011;60835;50.974;10.322;2023-08-21T13:18:31;5.63;;;3.80;;
72720;SDS011;60835;50.974;10.322;2023-08-21T13:20:58;5.25;;;4.22;;
72720;SDS011;60835;50.974;10.322;2023-08-21T13:23:24;4.75;;;4.32;;
72720;SDS011;60835;50.974;10.322;2023-08-21T13:25:51;5.72;;;3.70;;
72720;SDS011;60835;50.974;10.322;2023-08-21T13:28:18;6.05;;;3.35;;
72720;SDS011;60835;50.974;10.322;2023-08-21T13:30:44;7.50;;;3.55;;
72720;SDS011;60835;50.974;10.322;2023-08-21T13:33:13;6.05;;;3.50;;
72720;SDS011;60835;50.974;10.322;2023-08-21T13:35:41;4.60;;;3.70;;
72720;SDS011;60835;50.974;10.322;2023-08-21T13:38:07;8.57;;;7.43;;
72720;SDS011;60835;50.974;10.322;2023-08-21T13:40:34;7.60;;;4.30;;
72720;SDS011;60835;50.974;10.322;2023-08-21T13:43:01;5.45;;;4.30;;
72720;SDS011;60835;50.974;10.322;2023-08-21T13:45:29;7.32;;;4.32;;
72720;SDS011;60835;50.974;10.322;2023-08-21T13:47:56;8.85;;;4.60;;
72720;SDS011;60835;50.974;10.322;2023-08-21T13:50:23;16.35;;;12.00;;
72720;SDS011;60835;50.974;10.322;2023-08-21T13:52:50;8.45;;;4.32;;
72720;SDS011;60835;50.974;10.322;2023-08-21T13:55:16;12.02;;;9.43;;
72720;SDS011;60835;50.974;10.322;2023-08-21T13:57:44;11.00;;;8.50;;
72720;SDS011;60835;50.974;10.322;2023-08-21T14:00:11;12.18;;;9.10;;
72720;SDS011;60835;50.974;10.322;2023-08-21T14:02:39;10.52;;;6.13;;
72720;SDS011;60835;50.974;10.322;2023-08-21T14:05:08;7.05;;;4.93;;
72720;SDS011;60835;50.974;10.322;2023-08-21T14:07:37;7.32;;;4.70;;
72720;SDS011;60835;50.974;10.322;2023-08-21T14:10:04;4.80;;;4.22;;
72720;SDS011;60835;50.974;10.322;2023-08-21T14:12:31;4.75;;;3.78;;
72720;SDS011;60835;50.974;10.322;2023-08-21T14:14:58;8.35;;;3.95;;
72720;SDS011;60835;50.974;10.322;2023-08-21T14:17:26;4.30;;;3.47;;
72720;SDS011;60835;50.974;10.322;2023-08-21T14:19:53;12.55;;;3.33;;
72720;SDS011;60835;50.974;10.322;2023-08-21T14:22:20;4.30;;;3.08;;
72720;SDS011;60835;50.974;10.322;2023-08-21T14:24:47;5.82;;;3.20;;
72720;SDS011;60835;50.974;10.322;2023-08-21T14:27:13;5.55;;;3.63;;
72720;SDS011;60835;50.974;10.322;2023-08-21T14:29:42;6.57;;;3.80;;
72720;SDS011;60835;50.974;10.322;2023-08-21T14:32:10;7.32;;;3.60;;
72720;SDS011;60835;50.974;10.322;2023-08-21T14:34:38;6.40;;;3.83;;
72720;SDS011;60835;50.974;10.322;2023-08-21T14:37:04;5.97;;;3.42;;
72720;SDS011;60835;50.974;10.322;2023-08-21T14:39:31;5.35;;;3.53;;
72720;SDS011;60835;50.974;10.322;2023-08-21T14:41:59;7.00;;;4.90;;